Terminal Aerodrome Forecast
Issued by NWS Sioux Falls, SD

Home | Current Version | Previous Version | Text Only | Print | Product List | Glossary On
Versions: 1 2 3 4 5 6 7 8 9 10 11 12 13 14 15 16 17 18 19 20 21 22 23 24 25 26 27 28 29 30 31 32 33 34 35
000
FTUS43 KFSD 260532
TAFSUX
TAF
KSUX 260532Z 2606/2706 18007KT 5SM -SN OVC015
     FM260900 31012KT P6SM OVC015
     FM261100 32017G27KT P6SM OVC015
     FM261500 34021G30KT P6SM OVC015
     FM261900 34022G31KT P6SM SCT015
     FM270000 33015G22KT P6SM SCT050
     FM270300 34010KT P6SM SCT040=

USA.gov is the U.S. government's official web portal to all federal, state and local government web resources and services.